Maersk Visby — 9V8827 — position and weather

sailwx.info

Track history (hours):
 
Tides and Currents Weather Stations Pressure Air Temp Water Temp Dewpoint Dewpoint Depression Visibility Wind Speed Wind Dir Waves Ship Positions

Maersk Visby

Last reported at 2016-May-21 11:23 UTC. Time now 2016-May-24 23:34 UTC.
Position S 29°53' E 031°02'.

Length 180 m; draft 8.4 m.

Type: Ship (hazmat cat A). MMSI: 564979000.

Date/timePositionNaut miles runAvg speedWind from/ knotsBaromVisibWave heightAir tempDewpointWater temp
2016-May-21 11:23S 29°53' E 031°02'0 0.0
2016-May-21 10:32S 29°53' E 031°02'0 0.0
2016-May-21 09:32S 29°53' E 031°02'0 0.0
2016-May-21 08:32S 29°53' E 031°02'0 0.0
2016-May-21 07:32S 29°53' E 031°02'0 0.0
2016-May-21 06:32S 29°53' E 031°02'0 0.0
2016-May-21 05:32S 29°53' E 031°02'0 0.0
2016-May-21 04:32S 29°53' E 031°02'0 0.0
2016-May-21 03:32S 29°53' E 031°02'0 0.0
2016-May-21 02:32S 29°53' E 031°02'0 0.0
2016-May-21 01:32S 29°53' E 031°02'0 0.0
2016-May-21 00:32S 29°53' E 031°02'0 0.0
2016-May-20 23:32S 29°53' E 031°02'0 0.0
2016-May-20 22:32S 29°53' E 031°02'0 0.0
2016-May-20 21:32S 29°53' E 031°02'0 0.0
2016-May-20 20:32S 29°53' E 031°02'0 0.0
2016-May-20 19:32S 29°53' E 031°02'3 2.9
2016-May-20 18:34S 29°51' E 031°04'3 3.1
2016-May-20 17:33S 29°48' E 031°07'6 5.9
2016-May-20 16:31S 29°43' E 031°11'0 0.0
2016-May-20 15:31S 29°43' E 031°11'0 0.0
2016-May-20 14:31S 29°43' E 031°11'0 0.0
2016-May-20 13:31S 29°43' E 031°11'0 0.0
2016-May-20 12:31S 29°43' E 031°11'0 0.0
2016-May-20 11:31S 29°43' E 031°11'0 0.0
2016-May-20 10:31S 29°43' E 031°11'0 0.0
2016-May-20 09:31S 29°43' E 031°11'0 0.0
2016-May-20 08:31S 29°43' E 031°11'0 0.1
2016-May-20 07:31S 29°43' E 031°11'0 0.0
2016-May-20 06:31S 29°43' E 031°11'0 0.0
2016-May-20 05:31S 29°43' E 031°11'0 0.0
2016-May-20 04:31S 29°43' E 031°11'0 0.0
2016-May-20 03:31S 29°43' E 031°11'0 0.0
2016-May-20 02:31S 29°43' E 031°11'0 0.0
2016-May-20 01:31S 29°43' E 031°11'0 0.0
2016-May-20 00:31S 29°43' E 031°11'0 0.0
2016-May-19 23:31S 29°43' E 031°11'0 0.0
2016-May-19 22:31S 29°43' E 031°11'0 0.0
2016-May-19 21:31S 29°43' E 031°11'0 0.0
2016-May-19 20:31S 29°43' E 031°11'0 0.0
2016-May-19 19:31S 29°43' E 031°11'0 0.0
2016-May-19 18:31S 29°43' E 031°11'0 0.0
2016-May-19 17:31S 29°43' E 031°11'0 0.1
2016-May-19 16:31S 29°43' E 031°11'0 0.2
2016-May-19 15:31S 29°44' E 031°10'0 0.1
2016-May-19 14:31S 29°44' E 031°10'0 0.0
2016-May-19 13:31S 29°44' E 031°10'0 0.0
2016-May-19 12:31S 29°44' E 031°10'0 0.0
2016-May-19 11:31S 29°44' E 031°10'0 0.0
2016-May-19 10:31S 29°44' E 031°10'0 0.0
2016-May-19 09:31S 29°44' E 031°10'0 0.1
2016-May-19 08:31S 29°44' E 031°10'0 0.0
2016-May-19 07:31S 29°44' E 031°11'0 0.0
2016-May-19 06:31S 29°44' E 031°11'0 0.0
2016-May-19 05:31S 29°44' E 031°10'0 0.0
2016-May-19 04:31S 29°44' E 031°11'0 0.0
2016-May-19 03:31S 29°44' E 031°10'4 3.8
2016-May-19 02:34S 29°47' E 031°11'9 8.8
2016-May-19 01:34S 29°56' E 031°08'7 7.3
2016-May-19 00:34S 30°02' E 031°04'7 7.3
2016-May-18 23:34S 30°08' E 030°60'7 7.2
2016-May-18 22:34S 30°15' E 030°55'7 6.5
2016-May-18 21:33S 30°20' E 030°52'  
Track history (hours):
 
Tides and Currents Weather Stations Pressure Air Temp Water Temp Dewpoint Dewpoint Depression Visibility Wind Speed Wind Dir Waves Ship Positions

Maersk Visby

Last reported at 2016-May-21 11:23 UTC. Time now 2016-May-24 23:34 UTC.
Position S 29°53' E 031°02'.

Length 180 m; draft 8.4 m.

Type: Ship (hazmat cat A). MMSI: 564979000.

Date/timePositionNaut miles runAvg speedWind from/ knotsBaromVisibWave heightAir tempDewpointWater temp
2016-May-21 11:23S 29°53' E 031°02'0 0.0
2016-May-21 10:32S 29°53' E 031°02'0 0.0
2016-May-21 09:32S 29°53' E 031°02'0 0.0
2016-May-21 08:32S 29°53' E 031°02'0 0.0
2016-May-21 07:32S 29°53' E 031°02'0 0.0
2016-May-21 06:32S 29°53' E 031°02'0 0.0
2016-May-21 05:32S 29°53' E 031°02'0 0.0
2016-May-21 04:32S 29°53' E 031°02'0 0.0
2016-May-21 03:32S 29°53' E 031°02'0 0.0
2016-May-21 02:32S 29°53' E 031°02'0 0.0
2016-May-21 01:32S 29°53' E 031°02'0 0.0
2016-May-21 00:32S 29°53' E 031°02'0 0.0
2016-May-20 23:32S 29°53' E 031°02'0 0.0
2016-May-20 22:32S 29°53' E 031°02'0 0.0
2016-May-20 21:32S 29°53' E 031°02'0 0.0
2016-May-20 20:32S 29°53' E 031°02'0 0.0
2016-May-20 19:32S 29°53' E 031°02'3 2.9
2016-May-20 18:34S 29°51' E 031°04'3 3.1
2016-May-20 17:33S 29°48' E 031°07'6 5.9
2016-May-20 16:31S 29°43' E 031°11'0 0.0
2016-May-20 15:31S 29°43' E 031°11'0 0.0
2016-May-20 14:31S 29°43' E 031°11'0 0.0
2016-May-20 13:31S 29°43' E 031°11'0 0.0
2016-May-20 12:31S 29°43' E 031°11'0 0.0
2016-May-20 11:31S 29°43' E 031°11'0 0.0
2016-May-20 10:31S 29°43' E 031°11'0 0.0
2016-May-20 09:31S 29°43' E 031°11'0 0.0
2016-May-20 08:31S 29°43' E 031°11'0 0.1
2016-May-20 07:31S 29°43' E 031°11'0 0.0
2016-May-20 06:31S 29°43' E 031°11'0 0.0
2016-May-20 05:31S 29°43' E 031°11'0 0.0
2016-May-20 04:31S 29°43' E 031°11'0 0.0
2016-May-20 03:31S 29°43' E 031°11'0 0.0
2016-May-20 02:31S 29°43' E 031°11'0 0.0
2016-May-20 01:31S 29°43' E 031°11'0 0.0
2016-May-20 00:31S 29°43' E 031°11'0 0.0
2016-May-19 23:31S 29°43' E 031°11'0 0.0
2016-May-19 22:31S 29°43' E 031°11'0 0.0
2016-May-19 21:31S 29°43' E 031°11'0 0.0
2016-May-19 20:31S 29°43' E 031°11'0 0.0
2016-May-19 19:31S 29°43' E 031°11'0 0.0
2016-May-19 18:31S 29°43' E 031°11'0 0.0
2016-May-19 17:31S 29°43' E 031°11'0 0.1
2016-May-19 16:31S 29°43' E 031°11'0 0.2
2016-May-19 15:31S 29°44' E 031°10'0 0.1
2016-May-19 14:31S 29°44' E 031°10'0 0.0
2016-May-19 13:31S 29°44' E 031°10'0 0.0
2016-May-19 12:31S 29°44' E 031°10'0 0.0
2016-May-19 11:31S 29°44' E 031°10'0 0.0
2016-May-19 10:31S 29°44' E 031°10'0 0.0
2016-May-19 09:31S 29°44' E 031°10'0 0.1
2016-May-19 08:31S 29°44' E 031°10'0 0.0
2016-May-19 07:31S 29°44' E 031°11'0 0.0
2016-May-19 06:31S 29°44' E 031°11'0 0.0
2016-May-19 05:31S 29°44' E 031°10'0 0.0
2016-May-19 04:31S 29°44' E 031°11'0 0.0
2016-May-19 03:31S 29°44' E 031°10'4 3.8
2016-May-19 02:34S 29°47' E 031°11'9 8.8
2016-May-19 01:34S 29°56' E 031°08'7 7.3
2016-May-19 00:34S 30°02' E 031°04'7 7.3
2016-May-18 23:34S 30°08' E 030°60'7 7.2
2016-May-18 22:34S 30°15' E 030°55'7 6.5
2016-May-18 21:33S 30°20' E 030°52'  

Dump ship's entire track history